createdAt,value
2024-03-04T00:01:23.617Z,102243.97
2024-03-04T00:03:51.687Z,102243.53
2024-03-04T00:06:19.630Z,102237.09
2024-03-04T00:08:47.477Z,102231.38
2024-03-04T00:11:15.663Z,102237.00
2024-03-04T00:13:43.912Z,102241.84
2024-03-04T00:16:12.052Z,102230.47
2024-03-04T00:18:40.072Z,102222.41
2024-03-04T00:21:08.520Z,102221.41
2024-03-04T00:23:36.369Z,102225.44
2024-03-04T00:26:07.805Z,102223.56
2024-03-04T00:28:36.136Z,102211.66
2024-03-04T00:31:05.157Z,102201.53
2024-03-04T00:33:33.185Z,102202.56
2024-03-04T00:36:01.214Z,102201.63
2024-03-04T00:38:29.174Z,102198.38
2024-03-04T00:40:57.185Z,102198.38
2024-03-04T00:43:25.432Z,102198.44
2024-03-04T00:45:54.402Z,102198.53
2024-03-04T00:48:22.471Z,102204.56
2024-03-04T00:50:51.624Z,102208.97
2024-03-04T00:53:19.629Z,102205.53
2024-03-04T00:55:47.740Z,102217.63
2024-03-04T00:58:15.803Z,102221.84
2024-03-04T01:00:44.684Z,102225.19
2024-03-04T01:03:12.565Z,102225.19
2024-03-04T01:05:40.669Z,102232.84
2024-03-04T01:08:09.585Z,102225.06
2024-03-04T01:10:37.538Z,102231.88
2024-03-04T01:13:05.726Z,102234.31
2024-03-04T01:15:35.268Z,102240.97
2024-03-04T01:18:04.379Z,102245.09
2024-03-04T01:20:34.665Z,102238.22
2024-03-04T01:23:02.790Z,102238.09
2024-03-04T01:25:31.303Z,102232.97
2024-03-04T01:28:00.479Z,102236.41
2024-03-04T01:30:28.863Z,102227.91
2024-03-04T01:32:58.458Z,102238.16
2024-03-04T01:35:26.553Z,102238.09
2024-03-04T01:37:54.640Z,102236.25
2024-03-04T01:40:22.693Z,102237.00
2024-03-04T01:42:50.693Z,102238.47
2024-03-04T01:45:27.035Z,102239.16
2024-03-04T01:48:00.302Z,102243.34
2024-03-04T01:50:36.807Z,102247.41
2024-03-04T01:53:06.869Z,102245.50
2024-03-04T01:55:40.140Z,102250.34
2024-03-04T01:58:13.854Z,102257.78
2024-03-04T02:00:46.135Z,102256.66
2024-03-04T02:03:17.453Z,102261.50
2024-03-04T02:05:47.019Z,102252.66
2024-03-04T02:08:16.528Z,102263.50
2024-03-04T02:10:46.259Z,102261.56
2024-03-04T02:13:14.531Z,102252.19
2024-03-04T02:15:43.236Z,102253.00
2024-03-04T02:18:12.050Z,102254.56
2024-03-04T02:20:42.731Z,102250.13
2024-03-04T02:23:14.062Z,102253.41
2024-03-04T02:25:56.384Z,102254.38
2024-03-04T02:28:27.519Z,102260.19
2024-03-04T02:30:59.926Z,102261.88
2024-03-04T02:33:28.166Z,102256.63
2024-03-04T02:35:56.115Z,102252.16
2024-03-04T02:38:24.398Z,102257.88
2024-03-04T02:40:52.435Z,102250.06
2024-03-04T02:43:23.491Z,102260.28
2024-03-04T02:45:51.540Z,102243.25
2024-03-04T02:48:19.701Z,102244.28
2024-03-04T02:50:47.536Z,102255.47
2024-03-04T02:53:15.420Z,102250.47
2024-03-04T02:55:44.427Z,102261.38
2024-03-04T02:58:12.450Z,102267.38
2024-03-04T03:00:40.416Z,102273.91
2024-03-04T03:03:08.564Z,102270.28
2024-03-04T03:05:36.545Z,102271.72
2024-03-04T03:08:04.542Z,102258.63
2024-03-04T03:10:32.625Z,102268.69
2024-03-04T03:13:00.686Z,102267.69
2024-03-04T03:15:28.646Z,102266.66
2024-03-04T03:17:56.760Z,102270.03
2024-03-04T03:20:24.721Z,102272.53
2024-03-04T03:22:52.656Z,102264.72
2024-03-04T03:25:20.680Z,102259.34
2024-03-04T03:27:48.501Z,102278.19
2024-03-04T03:30:16.602Z,102275.56
2024-03-04T03:32:47.490Z,102282.28
2024-03-04T03:35:15.508Z,102283.03
2024-03-04T03:37:43.474Z,102282.28
2024-03-04T03:40:12.068Z,102284.66
2024-03-04T03:42:40.167Z,102289.06
2024-03-04T03:45:08.878Z,102281.47
2024-03-04T03:47:36.846Z,102276.41
2024-03-04T03:50:05.424Z,102263.31
2024-03-04T03:52:35.984Z,102278.97
2024-03-04T03:55:04.330Z,102273.78
2024-03-04T03:57:41.622Z,102280.47
2024-03-04T04:00:20.169Z,102269.13
2024-03-04T04:02:48.083Z,102280.97
2024-03-04T04:05:16.293Z,102291.06
2024-03-04T04:07:44.232Z,102287.38
2024-03-04T04:10:12.138Z,102280.38
2024-03-04T04:12:39.987Z,102294.00
2024-03-04T04:15:08.750Z,102301.38
2024-03-04T04:17:36.703Z,102298.63
2024-03-04T04:20:04.913Z,102296.78
2024-03-04T04:22:32.834Z,102295.81
2024-03-04T04:25:01.044Z,102307.47
2024-03-04T04:27:28.919Z,102308.88
2024-03-04T04:29:56.858Z,102297.53
2024-03-04T04:32:24.897Z,102298.22
2024-03-04T04:34:52.810Z,102308.38
2024-03-04T04:37:20.946Z,102304.69
2024-03-04T04:39:49.258Z,102303.59
2024-03-04T04:42:17.598Z,102312.72
2024-03-04T04:44:45.519Z,102308.22
2024-03-04T04:47:13.461Z,102318.25
2024-03-04T04:49:41.622Z,102319.75
2024-03-04T04:52:09.722Z,102310.03
2024-03-04T04:54:37.632Z,102324.53
2024-03-04T04:57:06.290Z,102330.38
2024-03-04T04:59:34.171Z,102332.91
2024-03-04T05:02:02.162Z,102336.88
2024-03-04T05:04:43.956Z,102341.06
2024-03-04T05:07:18.010Z,102352.00
2024-03-04T05:09:45.902Z,102343.44
2024-03-04T05:12:13.799Z,102348.34
2024-03-04T05:14:41.691Z,102346.53
2024-03-04T05:17:10.086Z,102346.47
2024-03-04T05:19:39.568Z,102339.59
2024-03-04T05:22:08.944Z,102345.59
2024-03-04T05:24:36.871Z,102345.66
2024-03-04T05:27:04.896Z,102345.84
2024-03-04T05:29:33.122Z,102362.91
2024-03-04T05:32:01.402Z,102363.03
2024-03-04T05:34:29.712Z,102361.41
2024-03-04T05:36:57.700Z,102364.91
2024-03-04T05:39:25.828Z,102371.78
2024-03-04T05:41:53.888Z,102376.81
2024-03-04T05:44:22.255Z,102390.31
2024-03-04T05:46:50.239Z,102385.25
2024-03-04T05:49:18.214Z,102383.44
2024-03-04T05:51:49.228Z,102379.03
2024-03-04T05:54:17.112Z,102380.50
2024-03-04T05:56:45.921Z,102382.84
2024-03-04T05:59:14.136Z,102402.59
2024-03-04T06:01:42.234Z,102402.34
2024-03-04T06:04:11.204Z,102405.66
2024-03-04T06:06:39.450Z,102414.59
2024-03-04T06:09:10.080Z,102422.16
2024-03-04T06:11:38.197Z,102420.25
2024-03-04T06:14:06.131Z,102421.78
2024-03-04T06:16:34.133Z,102427.81
2024-03-04T06:19:02.023Z,102432.81
2024-03-04T06:21:30.033Z,102436.09
2024-03-04T06:23:57.855Z,102431.69
2024-03-04T06:26:25.729Z,102444.13
2024-03-04T06:28:53.685Z,102450.66
2024-03-04T06:31:21.521Z,102443.72
2024-03-04T06:33:53.699Z,102441.69
2024-03-04T06:36:23.006Z,102449.84
2024-03-04T06:38:53.846Z,102453.03
2024-03-04T06:41:21.803Z,102439.09
2024-03-04T06:43:49.782Z,102463.63
2024-03-04T06:46:17.683Z,102465.00
2024-03-04T06:48:45.749Z,102460.59
2024-03-04T06:51:13.729Z,102465.41
2024-03-04T06:53:41.619Z,102466.91
2024-03-04T06:56:11.094Z,102472.63
2024-03-04T06:58:39.103Z,102474.94
2024-03-04T07:01:07.607Z,102482.34
2024-03-04T07:03:35.591Z,102499.09
2024-03-04T07:06:03.544Z,102487.91
2024-03-04T07:08:33.623Z,102489.44
2024-03-04T07:11:01.861Z,102489.94
2024-03-04T07:13:29.829Z,102488.84
2024-03-04T07:15:58.759Z,102502.03
2024-03-04T07:18:32.984Z,102503.38
2024-03-04T07:21:03.060Z,102483.69
2024-03-04T07:23:31.351Z,102509.88
2024-03-04T07:25:59.310Z,102509.81
2024-03-04T07:28:27.185Z,102508.78
2024-03-04T07:30:55.247Z,102506.56
2024-03-04T07:33:23.253Z,102523.69
2024-03-04T07:35:51.093Z,102518.22
2024-03-04T07:38:18.967Z,102526.69
2024-03-04T07:40:46.990Z,102539.78
2024-03-04T07:43:14.924Z,102531.31
2024-03-04T07:45:42.940Z,102550.38
2024-03-04T07:48:10.832Z,102540.06
2024-03-04T07:50:38.830Z,102548.25
2024-03-04T07:53:06.752Z,102548.00
2024-03-04T07:55:34.771Z,102554.56
2024-03-04T07:58:02.654Z,102566.09
2024-03-04T08:00:30.558Z,102568.50
2024-03-04T08:02:58.522Z,102564.03
2024-03-04T08:05:26.525Z,102575.78
2024-03-04T08:07:54.660Z,102580.59
2024-03-04T08:10:22.613Z,102598.22
2024-03-04T08:12:50.500Z,102605.75
2024-03-04T08:15:18.441Z,102607.16
2024-03-04T08:17:54.708Z,102627.22
2024-03-04T08:20:32.977Z,102629.84
2024-03-04T08:23:05.923Z,102642.44
2024-03-04T08:25:34.046Z,102656.66
2024-03-04T08:28:02.363Z,102661.72
2024-03-04T08:30:30.317Z,102676.00
2024-03-04T08:32:58.364Z,102668.91
2024-03-04T08:35:26.205Z,102677.47
2024-03-04T08:37:54.325Z,102684.97
2024-03-04T08:40:22.516Z,102688.28
2024-03-04T08:42:50.590Z,102692.22
2024-03-04T08:45:19.666Z,102691.44
2024-03-04T08:47:47.529Z,102695.53
2024-03-04T08:50:15.610Z,102703.91
2024-03-04T08:52:43.656Z,102708.03
2024-03-04T08:55:11.703Z,102718.03
2024-03-04T08:57:39.609Z,102724.78
2024-03-04T09:00:09.062Z,102725.38
2024-03-04T09:02:36.909Z,102732.97
2024-03-04T09:05:08.025Z,102747.31
2024-03-04T09:07:37.852Z,102755.59
2024-03-04T09:10:06.331Z,102746.66
2024-03-04T09:12:34.164Z,102763.00
2024-03-04T09:15:02.086Z,102772.19
2024-03-04T09:17:29.960Z,102778.81
2024-03-04T09:19:59.833Z,102783.78
2024-03-04T09:22:28.313Z,102790.13
2024-03-04T09:24:56.259Z,102787.13
2024-03-04T09:27:24.112Z,102804.41
2024-03-04T09:29:52.009Z,102821.28
2024-03-04T09:32:19.893Z,102814.69
2024-03-04T09:34:47.730Z,102837.72
2024-03-04T09:37:15.653Z,102840.78
2024-03-04T09:39:44.245Z,102824.53
2024-03-04T09:42:12.528Z,102837.84
2024-03-04T09:44:42.032Z,102839.44
2024-03-04T09:47:10.596Z,102840.91
2024-03-04T09:49:41.917Z,102850.91
2024-03-04T09:52:10.946Z,102861.03
2024-03-04T09:54:40.503Z,102868.53
2024-03-04T09:57:09.272Z,102867.56
2024-03-04T09:59:37.540Z,102881.78
2024-03-04T10:02:07.393Z,102887.50
2024-03-04T10:04:35.984Z,102902.59
2024-03-04T10:07:04.665Z,102904.94
2024-03-04T10:09:32.880Z,102915.06
2024-03-04T10:12:04.436Z,102926.72
2024-03-04T10:14:32.931Z,102922.22
2024-03-04T10:17:00.954Z,102932.25
2024-03-04T10:19:28.873Z,102936.25
2024-03-04T10:21:57.284Z,102938.69
2024-03-04T10:24:25.088Z,102945.28
2024-03-04T10:26:53.059Z,102936.63
2024-03-04T10:29:24.491Z,102941.59
2024-03-04T10:31:56.311Z,102953.94
2024-03-04T10:34:24.232Z,102963.84
2024-03-04T10:36:58.976Z,102969.34
2024-03-04T10:39:31.446Z,102979.19
2024-03-04T10:41:59.487Z,102983.16
2024-03-04T10:44:30.315Z,102981.97
2024-03-04T10:47:02.647Z,102993.84
2024-03-04T10:49:33.078Z,102996.38
2024-03-04T10:52:08.628Z,102996.06
2024-03-04T10:54:43.117Z,103004.41
2024-03-04T10:57:29.189Z,103011.81
2024-03-04T11:00:26.927Z,103007.78
2024-03-04T11:03:04.329Z,103018.31
2024-03-04T11:05:34.642Z,103025.13
2024-03-04T11:08:18.046Z,103024.22
2024-03-04T11:11:00.340Z,103017.41
2024-03-04T11:13:59.367Z,103032.56
2024-03-04T11:16:27.227Z,103049.41
2024-03-04T11:19:13.643Z,103064.34
2024-03-04T11:21:42.738Z,103061.72
2024-03-04T11:24:12.079Z,103082.03
2024-03-04T11:26:42.276Z,103098.19
2024-03-04T11:29:12.449Z,103087.97
2024-03-04T11:31:41.620Z,103104.22
2024-03-04T11:34:14.840Z,103109.38
2024-03-04T11:36:43.121Z,103108.59
2024-03-04T11:39:26.310Z,103110.47
2024-03-04T11:41:54.904Z,103114.75
2024-03-04T11:44:30.959Z,103111.56
2024-03-04T11:46:59.170Z,103114.97
2024-03-04T11:49:34.789Z,103124.41
2024-03-04T11:52:22.090Z,103131.88
2024-03-04T11:54:51.140Z,103145.50
2024-03-04T11:57:19.588Z,103149.78
2024-03-04T12:00:15.413Z,103147.25
2024-03-04T12:02:44.609Z,103149.22
2024-03-04T12:05:12.481Z,103149.34
2024-03-04T12:07:40.617Z,103152.28
2024-03-04T12:10:16.482Z,103175.25
2024-03-04T12:12:46.070Z,103161.94
2024-03-04T12:15:14.006Z,103165.00
2024-03-04T12:17:42.121Z,103169.84
2024-03-04T12:20:10.946Z,103175.00
2024-03-04T12:22:40.297Z,103178.72
2024-03-04T12:25:13.120Z,103185.63
2024-03-04T12:27:44.506Z,103187.53
2024-03-04T12:30:16.322Z,103197.94
2024-03-04T12:32:47.777Z,103210.91
2024-03-04T12:35:29.378Z,103210.91
2024-03-04T12:37:59.133Z,103228.38
2024-03-04T12:40:28.602Z,103218.34
2024-03-04T12:43:00.169Z,103231.84
2024-03-04T12:45:28.737Z,103241.63
2024-03-04T12:48:00.818Z,103240.53
2024-03-04T12:50:31.133Z,103248.56
2024-03-04T12:53:00.542Z,103259.00
2024-03-04T12:55:29.261Z,103273.97
2024-03-04T12:58:00.501Z,103278.94
2024-03-04T13:00:29.228Z,103270.34
2024-03-04T13:02:57.236Z,103278.81
2024-03-04T13:05:25.177Z,103277.00
2024-03-04T13:07:53.176Z,103273.34
2024-03-04T13:10:21.056Z,103273.06
2024-03-04T13:12:49.688Z,103293.78
2024-03-04T13:15:18.074Z,103305.66
2024-03-04T13:17:46.662Z,103289.97
2024-03-04T13:20:17.863Z,103293.50
2024-03-04T13:22:48.489Z,103285.81
2024-03-04T13:25:20.188Z,103302.97
2024-03-04T13:27:48.887Z,103307.84
2024-03-04T13:30:17.026Z,103300.38
2024-03-04T13:32:48.964Z,103319.19
2024-03-04T13:35:17.063Z,103332.16
2024-03-04T13:37:45.272Z,103331.72
2024-03-04T13:40:14.674Z,103332.56
2024-03-04T13:42:45.260Z,103319.06
2024-03-04T13:45:15.934Z,103360.63
2024-03-04T13:47:46.103Z,103361.50
2024-03-04T13:50:16.747Z,103353.00
2024-03-04T13:52:44.713Z,103360.75
2024-03-04T13:55:12.658Z,103361.16
2024-03-04T13:57:43.602Z,103360.94
2024-03-04T14:00:16.177Z,103372.16
2024-03-04T14:02:44.474Z,103384.00
2024-03-04T14:05:16.170Z,103378.84
2024-03-04T14:07:45.575Z,103391.16
2024-03-04T14:10:13.945Z,103392.13
2024-03-04T14:12:41.985Z,103391.72
2024-03-04T14:15:10.734Z,103389.41
2024-03-04T14:17:40.023Z,103397.69
2024-03-04T14:20:09.358Z,103399.25
2024-03-04T14:22:37.384Z,103406.78
2024-03-04T14:25:05.905Z,103397.19
2024-03-04T14:27:33.807Z,103411.69
2024-03-04T14:30:01.868Z,103404.75
2024-03-04T14:32:32.010Z,103417.09
2024-03-04T14:35:00.074Z,103413.03
2024-03-04T14:37:28.066Z,103409.31
2024-03-04T14:39:58.311Z,103411.16
2024-03-04T14:42:26.604Z,103411.34
2024-03-04T14:44:55.919Z,103422.31
2024-03-04T14:47:24.142Z,103433.34
2024-03-04T14:49:52.096Z,103431.88
2024-03-04T14:52:20.071Z,103440.75
2024-03-04T14:54:48.476Z,103434.34
2024-03-04T14:57:16.390Z,103432.34
2024-03-04T14:59:44.400Z,103426.56
2024-03-04T15:02:12.273Z,103433.03
2024-03-04T15:04:40.611Z,103434.66
2024-03-04T15:07:08.717Z,103430.09
2024-03-04T15:09:37.351Z,103426.97
2024-03-04T15:12:08.073Z,103423.16
2024-03-04T15:14:36.861Z,103446.19
2024-03-04T15:17:07.750Z,103437.72
2024-03-04T15:19:39.622Z,103440.63
2024-03-04T15:22:08.817Z,103446.88
2024-03-04T15:24:37.234Z,103445.22
2024-03-04T15:27:06.205Z,103439.75
2024-03-04T15:29:34.168Z,103459.19
2024-03-04T15:32:03.910Z,103453.91
2024-03-04T15:34:32.054Z,103466.53
2024-03-04T15:37:00.141Z,103455.47
2024-03-04T15:39:28.224Z,103454.69
2024-03-04T15:41:56.185Z,103467.78
2024-03-04T15:44:25.370Z,103462.91
2024-03-04T15:46:54.030Z,103461.34
2024-03-04T15:49:22.338Z,103446.13
2024-03-04T15:51:50.274Z,103451.88
2024-03-04T15:54:18.178Z,103446.78
2024-03-04T15:56:46.140Z,103446.69
2024-03-04T15:59:15.083Z,103462.34
2024-03-04T16:01:44.898Z,103466.31
2024-03-04T16:04:12.960Z,103452.56
2024-03-04T16:06:41.132Z,103464.44
2024-03-04T16:09:10.165Z,103465.59
2024-03-04T16:11:40.245Z,103469.59
2024-03-04T16:14:08.126Z,103461.97
2024-03-04T16:16:36.054Z,103454.66
2024-03-04T16:19:04.386Z,103454.22
2024-03-04T16:21:34.284Z,103441.00
2024-03-04T16:24:02.739Z,103446.47
2024-03-04T16:26:32.429Z,103445.41
2024-03-04T16:29:01.511Z,103436.50
2024-03-04T16:31:31.558Z,103442.34
2024-03-04T16:34:01.496Z,103445.00
2024-03-04T16:36:29.375Z,103443.75
2024-03-04T16:38:57.344Z,103446.84
2024-03-04T16:41:25.376Z,103448.44
2024-03-04T16:43:53.497Z,103455.81
2024-03-04T16:46:22.614Z,103464.38
2024-03-04T16:48:50.480Z,103462.66
2024-03-04T16:51:18.374Z,103447.50
2024-03-04T16:53:46.428Z,103452.41
2024-03-04T16:56:14.498Z,103452.28
2024-03-04T16:58:42.561Z,103448.09
2024-03-04T17:01:11.942Z,103452.38
2024-03-04T17:03:42.010Z,103445.53
2024-03-04T17:06:09.949Z,103447.13
2024-03-04T17:08:38.056Z,103453.63
2024-03-04T17:11:06.605Z,103451.78
2024-03-04T17:13:34.683Z,103457.41
2024-03-04T17:16:02.724Z,103459.13
2024-03-04T17:18:30.634Z,103455.88
2024-03-04T17:20:58.452Z,103440.66
2024-03-04T17:23:27.231Z,103448.28
2024-03-04T17:25:55.289Z,103461.78
2024-03-04T17:28:23.214Z,103466.00
2024-03-04T17:30:51.134Z,103469.09
2024-03-04T17:33:21.770Z,103472.69
2024-03-04T17:35:49.639Z,103480.50
2024-03-04T17:38:18.214Z,103476.25
2024-03-04T17:40:46.283Z,103471.69
2024-03-04T17:43:14.233Z,103463.78
2024-03-04T17:45:42.210Z,103460.78
2024-03-04T17:48:10.235Z,103459.41
2024-03-04T17:50:38.231Z,103457.19
2024-03-04T17:53:06.341Z,103470.44
2024-03-04T17:55:34.903Z,103465.03
2024-03-04T17:58:02.946Z,103462.03
2024-03-04T18:00:31.378Z,103468.63
2024-03-04T18:02:59.405Z,103467.13
2024-03-04T18:05:27.439Z,103472.56
2024-03-04T18:07:55.407Z,103483.66
2024-03-04T18:10:23.573Z,103476.28
2024-03-04T18:12:51.601Z,103484.50
2024-03-04T18:15:19.469Z,103479.84
2024-03-04T18:17:50.686Z,103476.63
2024-03-04T18:20:18.605Z,103479.97
2024-03-04T18:22:46.482Z,103481.00
2024-03-04T18:25:14.566Z,103484.78
2024-03-04T18:27:42.459Z,103469.00
2024-03-04T18:30:12.725Z,103476.06
2024-03-04T18:32:40.695Z,103478.91
2024-03-04T18:35:09.337Z,103471.38
2024-03-04T18:37:37.432Z,103475.63
2024-03-04T18:40:08.516Z,103466.28
2024-03-04T18:42:36.510Z,103471.78
2024-03-04T18:45:04.639Z,103474.16
2024-03-04T18:47:32.769Z,103474.50
2024-03-04T18:50:01.490Z,103474.09
2024-03-04T18:52:30.562Z,103467.94
2024-03-04T18:54:59.014Z,103469.47
2024-03-04T18:57:26.891Z,103473.09
2024-03-04T18:59:54.882Z,103480.06
2024-03-04T19:02:27.372Z,103480.28
2024-03-04T19:04:56.031Z,103477.63
2024-03-04T19:07:24.002Z,103478.34
2024-03-04T19:09:51.951Z,103476.97
2024-03-04T19:12:20.085Z,103487.34
2024-03-04T19:14:50.818Z,103476.03
2024-03-04T19:17:18.702Z,103462.25
2024-03-04T19:19:46.598Z,103474.03
2024-03-04T19:22:14.517Z,103466.84
2024-03-04T19:24:42.997Z,103451.66
2024-03-04T19:27:10.831Z,103453.13
2024-03-04T19:29:38.684Z,103442.13
2024-03-04T19:32:07.211Z,103437.66
2024-03-04T19:34:35.214Z,103444.69
2024-03-04T19:37:03.789Z,103449.53
2024-03-04T19:39:31.700Z,103456.28
2024-03-04T19:42:01.812Z,103456.28
2024-03-04T19:44:31.116Z,103469.59
2024-03-04T19:46:59.056Z,103463.25
2024-03-04T19:49:27.104Z,103456.88
2024-03-04T19:51:55.096Z,103462.66
2024-03-04T19:54:23.204Z,103462.91
2024-03-04T19:56:51.195Z,103459.28
2024-03-04T19:59:19.242Z,103455.00
2024-03-04T20:01:47.202Z,103459.19
2024-03-04T20:04:15.319Z,103458.91
2024-03-04T20:06:44.449Z,103453.31
2024-03-04T20:09:15.962Z,103456.28
2024-03-04T20:11:44.025Z,103448.66
2024-03-04T20:14:14.416Z,103443.91
2024-03-04T20:16:44.350Z,103447.06
2024-03-04T20:19:12.552Z,103445.69
2024-03-04T20:21:40.482Z,103442.16
2024-03-04T20:24:08.477Z,103451.53
2024-03-04T20:26:36.961Z,103460.09
2024-03-04T20:29:04.851Z,103460.50
2024-03-04T20:31:32.809Z,103455.03
2024-03-04T20:34:00.679Z,103465.56
2024-03-04T20:36:28.687Z,103443.72
2024-03-04T20:38:56.811Z,103445.69
2024-03-04T20:41:24.812Z,103448.72
2024-03-04T20:43:53.031Z,103446.88
2024-03-04T20:46:21.676Z,103466.31
2024-03-04T20:48:50.230Z,103468.75
2024-03-04T20:51:18.181Z,103461.63
2024-03-04T20:53:46.140Z,103464.25
2024-03-04T20:56:13.981Z,103466.53
2024-03-04T20:58:41.966Z,103464.63
2024-03-04T21:01:10.061Z,103461.31
2024-03-04T21:03:37.960Z,103462.00
2024-03-04T21:06:09.158Z,103473.31
2024-03-04T21:08:37.119Z,103470.84
2024-03-04T21:11:05.579Z,103468.09
2024-03-04T21:13:33.579Z,103475.75
2024-03-04T21:16:01.723Z,103475.53
2024-03-04T21:18:29.686Z,103466.31
2024-03-04T21:20:57.658Z,103485.50
2024-03-04T21:23:25.702Z,103476.72
2024-03-04T21:25:53.644Z,103473.78
2024-03-04T21:28:21.578Z,103472.13
2024-03-04T21:30:49.574Z,103478.00
2024-03-04T21:33:17.499Z,103467.13
2024-03-04T21:35:45.455Z,103462.19
2024-03-04T21:38:13.412Z,103449.56
2024-03-04T21:40:41.462Z,103456.69
2024-03-04T21:43:09.711Z,103452.66
2024-03-04T21:45:37.832Z,103452.22
2024-03-04T21:48:06.584Z,103450.03
2024-03-04T21:50:34.658Z,103464.53
2024-03-04T21:53:02.896Z,103466.28
2024-03-04T21:55:32.287Z,103459.44
2024-03-04T21:58:00.230Z,103457.47
2024-03-04T22:00:30.850Z,103447.56
2024-03-04T22:02:58.754Z,103458.22
2024-03-04T22:05:26.694Z,103468.66
2024-03-04T22:07:54.684Z,103469.72
2024-03-04T22:10:24.302Z,103470.13
2024-03-04T22:12:52.375Z,103479.03
2024-03-04T22:15:20.439Z,103471.97
2024-03-04T22:17:48.305Z,103457.88
2024-03-04T22:20:17.559Z,103462.47
2024-03-04T22:22:45.566Z,103468.28
2024-03-04T22:25:15.814Z,103482.34
2024-03-04T22:27:44.267Z,103492.09
2024-03-04T22:30:12.988Z,103479.88
2024-03-04T22:32:41.069Z,103482.72
2024-03-04T22:35:09.731Z,103476.28
2024-03-04T22:37:38.330Z,103474.31
2024-03-04T22:40:10.089Z,103483.41
2024-03-04T22:42:38.339Z,103485.47
2024-03-04T22:45:06.530Z,103491.91
2024-03-04T22:47:34.546Z,103495.84
2024-03-04T22:50:02.835Z,103492.81
2024-03-04T22:52:30.973Z,103501.69
2024-03-04T22:54:58.833Z,103492.97
2024-03-04T22:57:26.821Z,103473.19
2024-03-04T22:59:54.901Z,103483.06
2024-03-04T23:02:25.285Z,103482.59
2024-03-04T23:04:54.034Z,103483.94
2024-03-04T23:07:22.146Z,103477.91
2024-03-04T23:09:50.029Z,103485.00
2024-03-04T23:12:18.155Z,103487.38
2024-03-04T23:14:46.494Z,103490.44
2024-03-04T23:17:14.854Z,103480.47
2024-03-04T23:19:43.248Z,103465.09
2024-03-04T23:22:11.767Z,103461.41
2024-03-04T23:24:39.706Z,103458.91
2024-03-04T23:27:07.710Z,103461.31
2024-03-04T23:29:35.641Z,103472.28
2024-03-04T23:32:03.579Z,103463.72
2024-03-04T23:34:32.879Z,103464.59
2024-03-04T23:37:02.128Z,103458.66
2024-03-04T23:39:31.190Z,103466.13
2024-03-04T23:42:00.697Z,103453.38
2024-03-04T23:44:28.784Z,103442.78
2024-03-04T23:46:57.012Z,103441.78
2024-03-04T23:49:25.796Z,103444.31
2024-03-04T23:51:57.396Z,103436.63
2024-03-04T23:54:25.752Z,103427.19
2024-03-04T23:56:53.622Z,103432.22
2024-03-04T23:59:21.502Z,103437.00
